sensor_id;sensor_type;location;lat;lon;timestamp;temperature;humidity
4566;DHT22;2295;51.050;14.608;2023-02-01T00:01:31;3.00;99.90
4566;DHT22;2295;51.050;14.608;2023-02-01T00:03:59;3.00;99.90
4566;DHT22;2295;51.050;14.608;2023-02-01T00:06:28;2.90;99.90
4566;DHT22;2295;51.050;14.608;2023-02-01T00:08:57;3.00;99.90
4566;DHT22;2295;51.050;14.608;2023-02-01T00:11:26;2.90;99.90
4566;DHT22;2295;51.050;14.608;2023-02-01T00:13:54;2.90;99.90
4566;DHT22;2295;51.050;14.608;2023-02-01T00:16:25;3.00;99.90
4566;DHT22;2295;51.050;14.608;2023-02-01T00:18:59;3.00;99.90
4566;DHT22;2295;51.050;14.608;2023-02-01T00:21:28;3.00;99.90
4566;DHT22;2295;51.050;14.608;2023-02-01T00:23:58;2.90;99.90
4566;DHT22;2295;51.050;14.608;2023-02-01T00:26:31;2.90;99.90
4566;DHT22;2295;51.050;14.608;2023-02-01T00:29:00;2.90;99.90
4566;DHT22;2295;51.050;14.608;2023-02-01T00:31:29;2.90;99.90
4566;DHT22;2295;51.050;14.608;2023-02-01T00:34:00;2.90;99.90
4566;DHT22;2295;51.050;14.608;2023-02-01T00:36:28;2.90;99.90
4566;DHT22;2295;51.050;14.608;2023-02-01T00:38:58;2.90;99.90
4566;DHT22;2295;51.050;14.608;2023-02-01T00:41:28;3.00;99.90
4566;DHT22;2295;51.050;14.608;2023-02-01T00:43:57;3.00;99.90
4566;DHT22;2295;51.050;14.608;2023-02-01T00:46:26;2.90;99.90
4566;DHT22;2295;51.050;14.608;2023-02-01T00:48:55;2.90;99.90
4566;DHT22;2295;51.050;14.608;2023-02-01T00:51:27;2.90;99.90
4566;DHT22;2295;51.050;14.608;2023-02-01T00:53:56;2.90;99.90
4566;DHT22;2295;51.050;14.608;2023-02-01T00:56:25;2.80;99.90
4566;DHT22;2295;51.050;14.608;2023-02-01T00:58:56;2.80;99.90
4566;DHT22;2295;51.050;14.608;2023-02-01T01:01:26;2.70;99.90
4566;DHT22;2295;51.050;14.608;2023-02-01T01:03:56;2.70;99.90
4566;DHT22;2295;51.050;14.608;2023-02-01T01:06:28;2.70;99.90
4566;DHT22;2295;51.050;14.608;2023-02-01T01:08:58;2.70;99.90
4566;DHT22;2295;51.050;14.608;2023-02-01T01:11:30;2.60;99.90
4566;DHT22;2295;51.050;14.608;2023-02-01T01:13:59;2.60;99.90
4566;DHT22;2295;51.050;14.608;2023-02-01T01:16:29;2.60;99.90
4566;DHT22;2295;51.050;14.608;2023-02-01T01:18:59;2.60;99.90
4566;DHT22;2295;51.050;14.608;2023-02-01T01:21:29;2.60;99.90
4566;DHT22;2295;51.050;14.608;2023-02-01T01:23:58;2.50;99.90
4566;DHT22;2295;51.050;14.608;2023-02-01T01:26:28;2.60;99.90
4566;DHT22;2295;51.050;14.608;2023-02-01T01:28:58;2.60;99.90
4566;DHT22;2295;51.050;14.608;2023-02-01T01:31:27;2.50;99.90
4566;DHT22;2295;51.050;14.608;2023-02-01T01:33:58;2.50;99.90
4566;DHT22;2295;51.050;14.608;2023-02-01T01:36:29;2.50;99.90
4566;DHT22;2295;51.050;14.608;2023-02-01T01:38:58;2.50;99.90
4566;DHT22;2295;51.050;14.608;2023-02-01T01:41:30;2.50;99.90
4566;DHT22;2295;51.050;14.608;2023-02-01T01:44:01;2.60;99.90
4566;DHT22;2295;51.050;14.608;2023-02-01T01:46:31;2.60;99.90
4566;DHT22;2295;51.050;14.608;2023-02-01T01:49:05;2.60;99.90
4566;DHT22;2295;51.050;14.608;2023-02-01T01:51:37;2.70;99.90
4566;DHT22;2295;51.050;14.608;2023-02-01T01:54:11;2.70;99.90
4566;DHT22;2295;51.050;14.608;2023-02-01T01:56:41;2.60;99.90
4566;DHT22;2295;51.050;14.608;2023-02-01T01:59:09;2.70;99.90
4566;DHT22;2295;51.050;14.608;2023-02-01T02:01:38;2.60;99.90
4566;DHT22;2295;51.050;14.608;2023-02-01T02:04:06;2.60;99.90
4566;DHT22;2295;51.050;14.608;2023-02-01T02:06:41;2.60;99.90
4566;DHT22;2295;51.050;14.608;2023-02-01T02:09:13;2.70;99.90
4566;DHT22;2295;51.050;14.608;2023-02-01T02:11:42;2.60;99.90
4566;DHT22;2295;51.050;14.608;2023-02-01T02:14:12;2.60;99.90
4566;DHT22;2295;51.050;14.608;2023-02-01T02:20:22;2.70;99.90
4566;DHT22;2295;51.050;14.608;2023-02-01T02:23:22;2.70;99.90
4566;DHT22;2295;51.050;14.608;2023-02-01T02:32:36;2.60;99.90
4566;DHT22;2295;51.050;14.608;2023-02-01T02:35:19;2.60;99.90
4566;DHT22;2295;51.050;14.608;2023-02-01T02:37:56;2.60;99.90
4566;DHT22;2295;51.050;14.608;2023-02-01T02:40:33;2.60;99.90
4566;DHT22;2295;51.050;14.608;2023-02-01T02:43:10;2.60;99.90
4566;DHT22;2295;51.050;14.608;2023-02-01T02:46:03;2.60;99.90
4566;DHT22;2295;51.050;14.608;2023-02-01T02:49:00;2.50;99.90
4566;DHT22;2295;51.050;14.608;2023-02-01T02:51:35;2.40;99.90
4566;DHT22;2295;51.050;14.608;2023-02-01T02:54:25;2.40;99.90
4566;DHT22;2295;51.050;14.608;2023-02-01T02:57:19;2.50;99.90
4566;DHT22;2295;51.050;14.608;2023-02-01T03:00:07;2.40;99.90
4566;DHT22;2295;51.050;14.608;2023-02-01T03:02:54;2.40;99.90
4566;DHT22;2295;51.050;14.608;2023-02-01T03:05:43;2.50;99.90
4566;DHT22;2295;51.050;14.608;2023-02-01T03:08:14;2.50;99.90
4566;DHT22;2295;51.050;14.608;2023-02-01T03:10:54;2.40;99.90
4566;DHT22;2295;51.050;14.608;2023-02-01T03:13:31;2.40;99.90
4566;DHT22;2295;51.050;14.608;2023-02-01T03:16:06;2.30;99.90
4566;DHT22;2295;51.050;14.608;2023-02-01T03:18:40;2.30;99.90
4566;DHT22;2295;51.050;14.608;2023-02-01T03:21:12;2.40;99.90
4566;DHT22;2295;51.050;14.608;2023-02-01T03:23:44;2.30;99.90
4566;DHT22;2295;51.050;14.608;2023-02-01T03:26:17;2.30;99.90
4566;DHT22;2295;51.050;14.608;2023-02-01T03:28:52;2.30;99.90
4566;DHT22;2295;51.050;14.608;2023-02-01T03:31:22;2.30;99.90
4566;DHT22;2295;51.050;14.608;2023-02-01T03:33:51;2.30;99.90
4566;DHT22;2295;51.050;14.608;2023-02-01T03:36:25;2.30;99.90
4566;DHT22;2295;51.050;14.608;2023-02-01T03:39:01;2.30;99.90
4566;DHT22;2295;51.050;14.608;2023-02-01T03:41:35;2.30;99.90
4566;DHT22;2295;51.050;14.608;2023-02-01T03:44:11;2.20;99.90
4566;DHT22;2295;51.050;14.608;2023-02-01T03:46:43;2.30;99.90
4566;DHT22;2295;51.050;14.608;2023-02-01T03:49:18;2.30;99.90
4566;DHT22;2295;51.050;14.608;2023-02-01T03:51:49;2.20;99.90
4566;DHT22;2295;51.050;14.608;2023-02-01T03:54:20;2.20;99.90
4566;DHT22;2295;51.050;14.608;2023-02-01T03:56:50;2.20;99.90
4566;DHT22;2295;51.050;14.608;2023-02-01T03:59:19;2.30;99.90
4566;DHT22;2295;51.050;14.608;2023-02-01T04:01:48;2.30;99.90
4566;DHT22;2295;51.050;14.608;2023-02-01T04:04:16;2.30;99.90
4566;DHT22;2295;51.050;14.608;2023-02-01T04:06:47;2.30;99.90
4566;DHT22;2295;51.050;14.608;2023-02-01T04:09:16;2.40;99.90
4566;DHT22;2295;51.050;14.608;2023-02-01T04:11:46;2.40;99.90
4566;DHT22;2295;51.050;14.608;2023-02-01T04:14:15;2.40;99.90
4566;DHT22;2295;51.050;14.608;2023-02-01T04:16:43;2.40;99.90
4566;DHT22;2295;51.050;14.608;2023-02-01T04:19:12;2.40;99.90
4566;DHT22;2295;51.050;14.608;2023-02-01T04:21:40;2.40;99.90
4566;DHT22;2295;51.050;14.608;2023-02-01T04:24:08;2.40;99.90
4566;DHT22;2295;51.050;14.608;2023-02-01T04:26:37;2.40;99.90
4566;DHT22;2295;51.050;14.608;2023-02-01T04:29:08;2.40;99.90
4566;DHT22;2295;51.050;14.608;2023-02-01T04:31:37;2.40;99.90
4566;DHT22;2295;51.050;14.608;2023-02-01T04:34:05;2.50;99.90
4566;DHT22;2295;51.050;14.608;2023-02-01T04:36:33;2.50;99.90
4566;DHT22;2295;51.050;14.608;2023-02-01T04:39:02;2.50;99.90
4566;DHT22;2295;51.050;14.608;2023-02-01T04:41:30;2.50;99.90
4566;DHT22;2295;51.050;14.608;2023-02-01T04:43:58;2.50;99.90
4566;DHT22;2295;51.050;14.608;2023-02-01T04:46:29;2.50;99.90
4566;DHT22;2295;51.050;14.608;2023-02-01T04:48:57;2.50;99.90
4566;DHT22;2295;51.050;14.608;2023-02-01T04:51:26;2.50;99.90
4566;DHT22;2295;51.050;14.608;2023-02-01T04:53:54;2.50;99.90
4566;DHT22;2295;51.050;14.608;2023-02-01T04:56:23;2.40;99.90
4566;DHT22;2295;51.050;14.608;2023-02-01T04:58:51;2.50;99.90
4566;DHT22;2295;51.050;14.608;2023-02-01T05:01:19;2.50;99.90
4566;DHT22;2295;51.050;14.608;2023-02-01T05:03:49;2.40;99.90
4566;DHT22;2295;51.050;14.608;2023-02-01T05:06:17;2.40;99.90
4566;DHT22;2295;51.050;14.608;2023-02-01T05:08:46;2.40;99.90
4566;DHT22;2295;51.050;14.608;2023-02-01T05:11:14;2.40;99.90
4566;DHT22;2295;51.050;14.608;2023-02-01T05:13:56;2.40;99.90
4566;DHT22;2295;51.050;14.608;2023-02-01T05:16:28;2.40;99.90
4566;DHT22;2295;51.050;14.608;2023-02-01T05:18:57;2.40;99.90
4566;DHT22;2295;51.050;14.608;2023-02-01T05:21:26;2.40;99.90
4566;DHT22;2295;51.050;14.608;2023-02-01T05:23:54;2.40;99.90
4566;DHT22;2295;51.050;14.608;2023-02-01T05:26:40;2.40;99.90
4566;DHT22;2295;51.050;14.608;2023-02-01T05:29:13;2.40;99.90
4566;DHT22;2295;51.050;14.608;2023-02-01T05:31:42;2.50;99.90
4566;DHT22;2295;51.050;14.608;2023-02-01T05:34:13;2.50;99.90
4566;DHT22;2295;51.050;14.608;2023-02-01T05:36:42;2.60;99.90
4566;DHT22;2295;51.050;14.608;2023-02-01T05:39:11;2.50;99.90
4566;DHT22;2295;51.050;14.608;2023-02-01T05:41:39;2.50;99.90
4566;DHT22;2295;51.050;14.608;2023-02-01T05:44:07;2.50;99.90
4566;DHT22;2295;51.050;14.608;2023-02-01T05:46:36;2.50;99.90
4566;DHT22;2295;51.050;14.608;2023-02-01T05:49:05;2.40;99.90
4566;DHT22;2295;51.050;14.608;2023-02-01T05:51:35;2.30;99.90
4566;DHT22;2295;51.050;14.608;2023-02-01T05:54:03;2.40;99.90
4566;DHT22;2295;51.050;14.608;2023-02-01T05:56:31;2.40;99.90
4566;DHT22;2295;51.050;14.608;2023-02-01T05:59:01;2.40;99.90
4566;DHT22;2295;51.050;14.608;2023-02-01T06:01:29;2.40;99.90
4566;DHT22;2295;51.050;14.608;2023-02-01T06:03:57;2.40;99.90
4566;DHT22;2295;51.050;14.608;2023-02-01T06:06:26;2.40;99.90
4566;DHT22;2295;51.050;14.608;2023-02-01T06:08:56;2.30;99.90
4566;DHT22;2295;51.050;14.608;2023-02-01T06:11:24;2.30;99.90
4566;DHT22;2295;51.050;14.608;2023-02-01T06:14:00;2.40;99.90
4566;DHT22;2295;51.050;14.608;2023-02-01T06:16:28;2.40;99.90
4566;DHT22;2295;51.050;14.608;2023-02-01T06:18:57;2.40;99.90
4566;DHT22;2295;51.050;14.608;2023-02-01T06:21:25;2.40;99.90
4566;DHT22;2295;51.050;14.608;2023-02-01T06:23:55;2.40;99.90
4566;DHT22;2295;51.050;14.608;2023-02-01T06:26:24;2.30;99.90
4566;DHT22;2295;51.050;14.608;2023-02-01T06:28:55;2.20;99.90
4566;DHT22;2295;51.050;14.608;2023-02-01T06:31:23;2.20;99.90
4566;DHT22;2295;51.050;14.608;2023-02-01T06:33:52;2.00;99.90
4566;DHT22;2295;51.050;14.608;2023-02-01T06:36:21;1.90;99.90
4566;DHT22;2295;51.050;14.608;2023-02-01T06:38:49;1.80;99.90
4566;DHT22;2295;51.050;14.608;2023-02-01T06:41:19;1.70;99.90
4566;DHT22;2295;51.050;14.608;2023-02-01T06:43:48;1.50;99.90
4566;DHT22;2295;51.050;14.608;2023-02-01T06:46:17;1.40;99.90
4566;DHT22;2295;51.050;14.608;2023-02-01T06:48:46;1.30;99.90
4566;DHT22;2295;51.050;14.608;2023-02-01T06:51:21;1.20;99.90
4566;DHT22;2295;51.050;14.608;2023-02-01T06:53:49;1.20;99.90
4566;DHT22;2295;51.050;14.608;2023-02-01T06:56:19;1.00;99.90
4566;DHT22;2295;51.050;14.608;2023-02-01T06:58:48;1.00;99.90
4566;DHT22;2295;51.050;14.608;2023-02-01T07:01:16;0.90;99.90
4566;DHT22;2295;51.050;14.608;2023-02-01T07:03:47;0.90;99.90
4566;DHT22;2295;51.050;14.608;2023-02-01T07:06:17;0.90;99.90
4566;DHT22;2295;51.050;14.608;2023-02-01T07:08:45;0.90;99.90
4566;DHT22;2295;51.050;14.608;2023-02-01T07:11:15;0.80;99.90
4566;DHT22;2295;51.050;14.608;2023-02-01T07:13:45;0.80;99.90
4566;DHT22;2295;51.050;14.608;2023-02-01T07:16:15;0.80;99.90
4566;DHT22;2295;51.050;14.608;2023-02-01T07:18:45;0.80;99.90
4566;DHT22;2295;51.050;14.608;2023-02-01T07:21:15;0.80;99.90
4566;DHT22;2295;51.050;14.608;2023-02-01T07:23:43;0.80;99.90
4566;DHT22;2295;51.050;14.608;2023-02-01T07:26:13;0.80;99.90
4566;DHT22;2295;51.050;14.608;2023-02-01T07:28:45;0.80;99.90
4566;DHT22;2295;51.050;14.608;2023-02-01T07:31:15;0.80;99.90
4566;DHT22;2295;51.050;14.608;2023-02-01T07:33:45;0.90;99.90
4566;DHT22;2295;51.050;14.608;2023-02-01T07:36:15;0.90;99.90
4566;DHT22;2295;51.050;14.608;2023-02-01T07:38:43;0.90;99.90
4566;DHT22;2295;51.050;14.608;2023-02-01T07:41:13;0.90;99.90
4566;DHT22;2295;51.050;14.608;2023-02-01T07:43:42;0.90;99.90
4566;DHT22;2295;51.050;14.608;2023-02-01T07:46:12;1.00;99.90
4566;DHT22;2295;51.050;14.608;2023-02-01T07:48:42;1.00;99.90
4566;DHT22;2295;51.050;14.608;2023-02-01T07:51:12;1.00;99.90
4566;DHT22;2295;51.050;14.608;2023-02-01T07:53:40;1.10;99.90
4566;DHT22;2295;51.050;14.608;2023-02-01T07:56:12;1.10;99.90
4566;DHT22;2295;51.050;14.608;2023-02-01T07:58:40;1.10;99.90
4566;DHT22;2295;51.050;14.608;2023-02-01T08:01:15;1.10;99.90
4566;DHT22;2295;51.050;14.608;2023-02-01T08:03:52;1.10;99.90
4566;DHT22;2295;51.050;14.608;2023-02-01T08:06:21;1.10;99.90
4566;DHT22;2295;51.050;14.608;2023-02-01T08:08:51;1.10;99.90
4566;DHT22;2295;51.050;14.608;2023-02-01T08:11:20;1.20;99.90
4566;DHT22;2295;51.050;14.608;2023-02-01T08:13:49;1.20;99.90
4566;DHT22;2295;51.050;14.608;2023-02-01T08:16:20;1.20;99.90
4566;DHT22;2295;51.050;14.608;2023-02-01T08:18:49;1.20;99.90
4566;DHT22;2295;51.050;14.608;2023-02-01T08:21:19;1.20;99.90
4566;DHT22;2295;51.050;14.608;2023-02-01T08:23:48;1.20;99.90
4566;DHT22;2295;51.050;14.608;2023-02-01T08:26:20;1.20;99.90
4566;DHT22;2295;51.050;14.608;2023-02-01T08:28:50;1.20;99.90
4566;DHT22;2295;51.050;14.608;2023-02-01T08:31:22;1.30;99.90
4566;DHT22;2295;51.050;14.608;2023-02-01T08:33:53;1.30;99.90
4566;DHT22;2295;51.050;14.608;2023-02-01T08:36:23;1.40;99.90
4566;DHT22;2295;51.050;14.608;2023-02-01T08:38:52;1.40;99.90
4566;DHT22;2295;51.050;14.608;2023-02-01T08:41:22;1.50;99.90
4566;DHT22;2295;51.050;14.608;2023-02-01T08:43:50;1.50;99.90
4566;DHT22;2295;51.050;14.608;2023-02-01T08:46:21;1.50;99.90
4566;DHT22;2295;51.050;14.608;2023-02-01T08:48:50;1.50;99.90
4566;DHT22;2295;51.050;14.608;2023-02-01T08:51:21;1.50;99.90
4566;DHT22;2295;51.050;14.608;2023-02-01T08:53:50;1.60;99.90
4566;DHT22;2295;51.050;14.608;2023-02-01T08:56:19;1.60;99.90
4566;DHT22;2295;51.050;14.608;2023-02-01T08:58:47;1.80;99.90
4566;DHT22;2295;51.050;14.608;2023-02-01T09:01:17;1.80;99.90
4566;DHT22;2295;51.050;14.608;2023-02-01T09:03:46;1.90;99.90
4566;DHT22;2295;51.050;14.608;2023-02-01T09:06:15;1.80;99.90
4566;DHT22;2295;51.050;14.608;2023-02-01T09:08:44;1.80;99.90
4566;DHT22;2295;51.050;14.608;2023-02-01T09:11:15;1.70;99.90
4566;DHT22;2295;51.050;14.608;2023-02-01T09:13:47;1.60;99.90
4566;DHT22;2295;51.050;14.608;2023-02-01T09:16:16;1.50;99.90
4566;DHT22;2295;51.050;14.608;2023-02-01T09:18:46;1.40;99.90
4566;DHT22;2295;51.050;14.608;2023-02-01T09:21:27;1.40;99.90
4566;DHT22;2295;51.050;14.608;2023-02-01T09:23:56;1.50;99.90
4566;DHT22;2295;51.050;14.608;2023-02-01T09:26:24;1.50;99.90
4566;DHT22;2295;51.050;14.608;2023-02-01T09:28:58;1.60;99.90
4566;DHT22;2295;51.050;14.608;2023-02-01T09:31:27;1.70;99.90
4566;DHT22;2295;51.050;14.608;2023-02-01T09:33:59;1.80;99.90
4566;DHT22;2295;51.050;14.608;2023-02-01T09:36:27;1.90;99.90
4566;DHT22;2295;51.050;14.608;2023-02-01T09:38:57;2.10;99.90
4566;DHT22;2295;51.050;14.608;2023-02-01T09:41:42;2.40;99.90
4566;DHT22;2295;51.050;14.608;2023-02-01T09:44:25;2.60;99.90
4566;DHT22;2295;51.050;14.608;2023-02-01T09:47:11;2.70;99.90
4566;DHT22;2295;51.050;14.608;2023-02-01T09:49:50;2.80;99.90
4566;DHT22;2295;51.050;14.608;2023-02-01T09:52:25;2.70;99.90
4566;DHT22;2295;51.050;14.608;2023-02-01T09:54:57;2.60;99.90
4566;DHT22;2295;51.050;14.608;2023-02-01T09:57:43;2.60;99.90
4566;DHT22;2295;51.050;14.608;2023-02-01T10:00:18;2.50;99.90
4566;DHT22;2295;51.050;14.608;2023-02-01T10:02:49;2.50;99.90
4566;DHT22;2295;51.050;14.608;2023-02-01T10:05:28;2.40;99.90
4566;DHT22;2295;51.050;14.608;2023-02-01T10:08:03;2.30;99.90
4566;DHT22;2295;51.050;14.608;2023-02-01T10:10:37;2.20;99.90
4566;DHT22;2295;51.050;14.608;2023-02-01T10:13:21;2.10;99.90
4566;DHT22;2295;51.050;14.608;2023-02-01T10:16:02;2.10;99.90
4566;DHT22;2295;51.050;14.608;2023-02-01T10:18:51;2.10;99.90
4566;DHT22;2295;51.050;14.608;2023-02-01T10:21:35;2.00;99.90
4566;DHT22;2295;51.050;14.608;2023-02-01T10:24:41;2.10;99.90
4566;DHT22;2295;51.050;14.608;2023-02-01T10:27:14;2.10;99.90
4566;DHT22;2295;51.050;14.608;2023-02-01T10:29:47;2.10;99.90
4566;DHT22;2295;51.050;14.608;2023-02-01T10:32:20;2.10;99.90
4566;DHT22;2295;51.050;14.608;2023-02-01T10:34:53;2.00;99.90
4566;DHT22;2295;51.050;14.608;2023-02-01T10:37:30;1.90;99.90
4566;DHT22;2295;51.050;14.608;2023-02-01T10:40:01;1.80;99.90
4566;DHT22;2295;51.050;14.608;2023-02-01T10:42:35;1.80;99.90
4566;DHT22;2295;51.050;14.608;2023-02-01T10:45:04;1.70;99.90
4566;DHT22;2295;51.050;14.608;2023-02-01T10:47:34;1.60;99.90
4566;DHT22;2295;51.050;14.608;2023-02-01T10:50:21;1.70;99.90
4566;DHT22;2295;51.050;14.608;2023-02-01T10:52:58;1.70;99.90
4566;DHT22;2295;51.050;14.608;2023-02-01T10:55:38;1.70;99.90
4566;DHT22;2295;51.050;14.608;2023-02-01T10:58:14;1.70;99.90
4566;DHT22;2295;51.050;14.608;2023-02-01T11:00:48;1.70;99.90
4566;DHT22;2295;51.050;14.608;2023-02-01T11:03:33;1.70;99.90
4566;DHT22;2295;51.050;14.608;2023-02-01T11:06:08;1.70;99.90
4566;DHT22;2295;51.050;14.608;2023-02-01T11:08:45;1.70;99.90
4566;DHT22;2295;51.050;14.608;2023-02-01T11:11:15;1.70;99.90
4566;DHT22;2295;51.050;14.608;2023-02-01T11:13:52;1.80;99.90
4566;DHT22;2295;51.050;14.608;2023-02-01T11:16:20;1.70;99.90
4566;DHT22;2295;51.050;14.608;2023-02-01T11:18:53;1.80;99.90
4566;DHT22;2295;51.050;14.608;2023-02-01T11:21:22;1.70;99.90
4566;DHT22;2295;51.050;14.608;2023-02-01T11:23:53;1.80;99.90
4566;DHT22;2295;51.050;14.608;2023-02-01T11:26:22;1.80;99.90
4566;DHT22;2295;51.050;14.608;2023-02-01T11:28:54;1.80;99.90
4566;DHT22;2295;51.050;14.608;2023-02-01T11:31:28;1.80;99.90
4566;DHT22;2295;51.050;14.608;2023-02-01T11:33:59;1.80;99.90
4566;DHT22;2295;51.050;14.608;2023-02-01T11:36:31;1.80;99.90
4566;DHT22;2295;51.050;14.608;2023-02-01T11:39:26;1.80;99.90
4566;DHT22;2295;51.050;14.608;2023-02-01T11:42:03;1.80;99.90
4566;DHT22;2295;51.050;14.608;2023-02-01T11:44:34;1.90;99.90
4566;DHT22;2295;51.050;14.608;2023-02-01T11:47:22;1.90;99.90
4566;DHT22;2295;51.050;14.608;2023-02-01T11:49:52;1.90;99.90
4566;DHT22;2295;51.050;14.608;2023-02-01T11:52:41;2.00;99.90
4566;DHT22;2295;51.050;14.608;2023-02-01T11:55:25;2.00;99.90
4566;DHT22;2295;51.050;14.608;2023-02-01T11:58:11;2.10;99.90
4566;DHT22;2295;51.050;14.608;2023-02-01T12:00:53;2.10;99.90
4566;DHT22;2295;51.050;14.608;2023-02-01T12:06:45;2.30;99.90
4566;DHT22;2295;51.050;14.608;2023-02-01T12:09:35;2.40;99.90
4566;DHT22;2295;51.050;14.608;2023-02-01T12:12:17;2.40;99.90
4566;DHT22;2295;51.050;14.608;2023-02-01T12:15:08;2.40;99.90
4566;DHT22;2295;51.050;14.608;2023-02-01T12:18:03;2.30;99.90
4566;DHT22;2295;51.050;14.608;2023-02-01T12:26:42;2.60;99.90
4566;DHT22;2295;51.050;14.608;2023-02-01T12:29:26;2.80;99.90
4566;DHT22;2295;51.050;14.608;2023-02-01T12:32:10;2.80;99.90
4566;DHT22;2295;51.050;14.608;2023-02-01T12:34:57;2.70;99.90
4566;DHT22;2295;51.050;14.608;2023-02-01T12:37:39;2.60;99.90
4566;DHT22;2295;51.050;14.608;2023-02-01T12:40:28;2.40;99.90
4566;DHT22;2295;51.050;14.608;2023-02-01T12:43:03;2.30;99.90
4566;DHT22;2295;51.050;14.608;2023-02-01T12:45:38;2.20;99.90
4566;DHT22;2295;51.050;14.608;2023-02-01T12:48:22;2.30;99.90
4566;DHT22;2295;51.050;14.608;2023-02-01T12:50:54;2.20;99.90
4566;DHT22;2295;51.050;14.608;2023-02-01T12:53:30;2.10;99.90
4566;DHT22;2295;51.050;14.608;2023-02-01T12:56:03;2.10;99.90
4566;DHT22;2295;51.050;14.608;2023-02-01T12:58:40;1.90;99.90
4566;DHT22;2295;51.050;14.608;2023-02-01T13:01:14;1.80;99.90
4566;DHT22;2295;51.050;14.608;2023-02-01T13:03:52;1.70;99.90
4566;DHT22;2295;51.050;14.608;2023-02-01T13:06:26;1.50;99.90
4566;DHT22;2295;51.050;14.608;2023-02-01T13:09:03;1.50;99.90
4566;DHT22;2295;51.050;14.608;2023-02-01T13:11:34;1.50;99.90
4566;DHT22;2295;51.050;14.608;2023-02-01T13:14:07;1.70;99.90
4566;DHT22;2295;51.050;14.608;2023-02-01T13:16:42;1.90;99.90
4566;DHT22;2295;51.050;14.608;2023-02-01T13:19:16;2.00;99.90
4566;DHT22;2295;51.050;14.608;2023-02-01T13:21:48;2.20;99.90
4566;DHT22;2295;51.050;14.608;2023-02-01T13:24:33;2.20;99.90
4566;DHT22;2295;51.050;14.608;2023-02-01T13:27:04;2.30;99.90
4566;DHT22;2295;51.050;14.608;2023-02-01T13:29:33;2.30;99.90
4566;DHT22;2295;51.050;14.608;2023-02-01T13:35:29;2.30;99.90
4566;DHT22;2295;51.050;14.608;2023-02-01T13:38:34;2.20;99.90
4566;DHT22;2295;51.050;14.608;2023-02-01T13:41:20;2.20;99.90
4566;DHT22;2295;51.050;14.608;2023-02-01T13:43:56;2.10;99.90
4566;DHT22;2295;51.050;14.608;2023-02-01T13:46:26;2.10;99.90
4566;DHT22;2295;51.050;14.608;2023-02-01T13:48:59;2.20;99.90
4566;DHT22;2295;51.050;14.608;2023-02-01T13:51:38;2.20;99.90
4566;DHT22;2295;51.050;14.608;2023-02-01T13:54:28;2.20;99.90
4566;DHT22;2295;51.050;14.608;2023-02-01T13:56:58;2.30;99.90
4566;DHT22;2295;51.050;14.608;2023-02-01T14:05:59;2.30;99.90
4566;DHT22;2295;51.050;14.608;2023-02-01T14:08:43;2.30;99.90
4566;DHT22;2295;51.050;14.608;2023-02-01T14:11:32;2.30;99.90
4566;DHT22;2295;51.050;14.608;2023-02-01T14:17:36;2.30;99.90
4566;DHT22;2295;51.050;14.608;2023-02-01T14:23:30;2.30;99.90
4566;DHT22;2295;51.050;14.608;2023-02-01T14:26:18;2.20;99.90
4566;DHT22;2295;51.050;14.608;2023-02-01T14:28:53;2.20;99.90
4566;DHT22;2295;51.050;14.608;2023-02-01T14:31:50;2.20;99.90
4566;DHT22;2295;51.050;14.608;2023-02-01T14:34:24;2.20;99.90
4566;DHT22;2295;51.050;14.608;2023-02-01T14:36:58;2.20;99.90
4566;DHT22;2295;51.050;14.608;2023-02-01T14:39:36;2.30;99.90
4566;DHT22;2295;51.050;14.608;2023-02-01T14:42:24;2.30;99.90
4566;DHT22;2295;51.050;14.608;2023-02-01T14:44:54;2.30;99.90
4566;DHT22;2295;51.050;14.608;2023-02-01T14:47:34;2.40;99.90
4566;DHT22;2295;51.050;14.608;2023-02-01T14:50:25;2.50;99.90
4566;DHT22;2295;51.050;14.608;2023-02-01T14:53:13;2.50;99.90
4566;DHT22;2295;51.050;14.608;2023-02-01T14:55:49;2.50;99.90
4566;DHT22;2295;51.050;14.608;2023-02-01T14:58:32;2.40;99.90
4566;DHT22;2295;51.050;14.608;2023-02-01T15:01:05;2.40;99.90
4566;DHT22;2295;51.050;14.608;2023-02-01T15:03:43;2.40;99.90
4566;DHT22;2295;51.050;14.608;2023-02-01T15:06:33;2.40;99.90
4566;DHT22;2295;51.050;14.608;2023-02-01T15:09:04;2.30;99.90
4566;DHT22;2295;51.050;14.608;2023-02-01T15:12:02;2.30;99.90
4566;DHT22;2295;51.050;14.608;2023-02-01T15:14:33;2.30;99.90
4566;DHT22;2295;51.050;14.608;2023-02-01T15:17:02;2.30;99.90
4566;DHT22;2295;51.050;14.608;2023-02-01T15:19:31;2.30;99.90
4566;DHT22;2295;51.050;14.608;2023-02-01T15:22:00;2.20;99.90
4566;DHT22;2295;51.050;14.608;2023-02-01T15:24:30;2.20;99.90
4566;DHT22;2295;51.050;14.608;2023-02-01T15:27:05;2.10;99.90
4566;DHT22;2295;51.050;14.608;2023-02-01T15:29:34;2.10;99.90
4566;DHT22;2295;51.050;14.608;2023-02-01T15:32:02;2.00;99.90
4566;DHT22;2295;51.050;14.608;2023-02-01T15:34:45;1.90;99.90
4566;DHT22;2295;51.050;14.608;2023-02-01T15:37:15;2.00;99.90
4566;DHT22;2295;51.050;14.608;2023-02-01T15:40:05;2.00;99.90
4566;DHT22;2295;51.050;14.608;2023-02-01T15:42:37;2.00;99.90
4566;DHT22;2295;51.050;14.608;2023-02-01T15:45:16;2.10;99.90
4566;DHT22;2295;51.050;14.608;2023-02-01T15:47:47;2.10;99.90
4566;DHT22;2295;51.050;14.608;2023-02-01T15:50:16;2.10;99.90
4566;DHT22;2295;51.050;14.608;2023-02-01T15:52:50;2.10;99.90
4566;DHT22;2295;51.050;14.608;2023-02-01T15:55:21;2.00;99.90
4566;DHT22;2295;51.050;14.608;2023-02-01T15:57:59;2.00;99.90
4566;DHT22;2295;51.050;14.608;2023-02-01T16:00:30;2.00;99.90
4566;DHT22;2295;51.050;14.608;2023-02-01T16:03:01;2.00;99.90
4566;DHT22;2295;51.050;14.608;2023-02-01T16:05:34;2.00;99.90
4566;DHT22;2295;51.050;14.608;2023-02-01T16:08:04;1.90;99.90
4566;DHT22;2295;51.050;14.608;2023-02-01T16:10:39;1.90;99.90
4566;DHT22;2295;51.050;14.608;2023-02-01T16:13:09;1.80;99.90
4566;DHT22;2295;51.050;14.608;2023-02-01T16:15:38;1.70;99.90
4566;DHT22;2295;51.050;14.608;2023-02-01T16:18:06;1.60;99.90
4566;DHT22;2295;51.050;14.608;2023-02-01T16:20:39;1.50;99.90
4566;DHT22;2295;51.050;14.608;2023-02-01T16:23:09;1.50;99.90
4566;DHT22;2295;51.050;14.608;2023-02-01T16:25:38;1.40;99.90
4566;DHT22;2295;51.050;14.608;2023-02-01T16:28:08;1.30;99.90
4566;DHT22;2295;51.050;14.608;2023-02-01T16:30:40;1.30;99.90
4566;DHT22;2295;51.050;14.608;2023-02-01T16:33:11;1.30;99.90
4566;DHT22;2295;51.050;14.608;2023-02-01T16:35:45;1.30;99.90
4566;DHT22;2295;51.050;14.608;2023-02-01T16:38:15;1.30;99.90
4566;DHT22;2295;51.050;14.608;2023-02-01T16:40:49;1.40;99.90
4566;DHT22;2295;51.050;14.608;2023-02-01T16:43:20;1.30;99.90
4566;DHT22;2295;51.050;14.608;2023-02-01T16:45:51;1.30;99.90
4566;DHT22;2295;51.050;14.608;2023-02-01T16:48:26;1.30;99.90
4566;DHT22;2295;51.050;14.608;2023-02-01T16:50:57;1.40;99.90
4566;DHT22;2295;51.050;14.608;2023-02-01T16:53:30;1.40;99.90
4566;DHT22;2295;51.050;14.608;2023-02-01T16:56:13;1.40;99.90
4566;DHT22;2295;51.050;14.608;2023-02-01T16:58:43;1.40;99.90
4566;DHT22;2295;51.050;14.608;2023-02-01T17:01:13;1.40;99.90
4566;DHT22;2295;51.050;14.608;2023-02-01T17:03:45;1.40;99.90
4566;DHT22;2295;51.050;14.608;2023-02-01T17:06:19;1.40;99.90
4566;DHT22;2295;51.050;14.608;2023-02-01T17:08:54;1.40;99.90
4566;DHT22;2295;51.050;14.608;2023-02-01T17:11:25;1.40;99.90
4566;DHT22;2295;51.050;14.608;2023-02-01T17:14:00;1.30;99.90
4566;DHT22;2295;51.050;14.608;2023-02-01T17:16:30;1.20;99.90
4566;DHT22;2295;51.050;14.608;2023-02-01T17:19:03;1.10;99.90